Portada
METAR-TAF:

METAR-TAF

Aeroports :

Gdańsk, Polònia

latitud: 54-23N, longitud: 018-28E, altitud: 135 m

Observació

L'informe es va fer fa 10 minuts, a les 01:00 UTC
Vent 2 kt del Oest
Temperatura 9°C
Humitat 93%
Pressió 1020 hPa
Visibilitat 10 km o més
sense núvols per sota de 1500 mi sense presència de cumulonimbus.

METAR: EPGD 160100Z 26002KT CAVOK 09/08 Q1020

Hora: 03:10 (01:10 UTC)

Pronòstic

L'informe es va fer fa 1 hora i 40 minuts, a les 23:30 UTC
Pronòstic vàlid del 16 a les 00 UTC al 16 a les 24 UTC
Vent 3 kt amb direcció variable
Visibilitat 10 km o més
sense núvols per sota de 1500 mi sense presència de cumulonimbus.
Evolucionant progressivament
l' 16 a les 12 UTC al 16 a les 15 UTC
Vent 10 kt del Est/Nord-Est

TAF: EPGD 152330Z 1600/1624 VRB03KT CAVOK BECMG 1612/1615 07010KT

Observacions i pronòstics meteorològics de més de 4000 aeroports (METAR i TAF).

Les estacions disponibles són els punts grocs i vermells al mapa.

Posi el ratolí al punt desitjat per veure el nom de l'estació.

Feu clic per veure les observacions i els pronòstics meteorològics.

Per canviar el mapa: feu clic els botons verds amb una creu de color negre per apropar; al botó verd amb un guió per allunyar la imatge; o en les fletxes verdes per a mapes adjacents.


METAR-TAF: